Time;durP1;ratioP1;P1;durP2;ratioP2;P2;SDS_P1;SDS_P2;PMS_P1;PMS_P2;Temp;Humidity;BMP_temperature;BMP_pressure;BME280_temperature;BME280_humidity;BME280_pressure;Samples;Min_cycle;Max_cycle;Signal;HPM_P1;HPM_P2
2021/12/01 00:01:37;;;;;;;0.10;0.10;;;;;;;10.98;100.00;99460.22;8361646;28;20044;-64
2021/12/01 00:05:38;;;;;;;0.57;0.20;;;;;;;10.97;100.00;99445.84;8360942;28;20087;-64
2021/12/01 00:09:39;;;;;;;0.30;0.10;;;;;;;10.97;100.00;99443.16;8357378;28;20033;-64
2021/12/01 00:13:39;;;;;;;0.10;0.10;;;;;;;10.96;100.00;99446.88;8358123;28;20041;-64
2021/12/01 00:17:40;;;;;;;0.00;0.00;;;;;;;10.98;100.00;99433.19;8354101;28;20041;-64
2021/12/01 00:21:40;;;;;;;0.22;0.20;;;;;;;11.02;100.00;99437.22;8381612;28;20432;-64
2021/12/01 00:25:42;;;;;;;0.75;0.10;;;;;;;11.04;100.00;99417.09;8381344;28;20499;-64
2021/12/01 00:29:42;;;;;;;0.45;0.30;;;;;;;11.09;100.00;99416.59;8381131;28;20112;-64
2021/12/01 00:33:43;;;;;;;0.85;0.20;;;;;;;11.09;100.00;99412.03;8375740;28;20040;-64
2021/12/01 00:37:44;;;;;;;1.48;0.40;;;;;;;11.01;100.00;99398.50;8382328;28;20036;-64
2021/12/01 00:41:44;;;;;;;0.88;0.25;;;;;;;11.03;100.00;99382.97;8390928;28;20040;-64
2021/12/01 00:45:54;;;;;;;0.60;0.30;;;;;;;11.00;100.00;99377.91;8381967;28;20040;-63
2021/12/01 00:49:54;;;;;;;0.40;0.30;;;;;;;10.99;100.00;99373.53;8381686;28;20037;-63
2021/12/01 00:53:55;;;;;;;0.30;0.30;;;;;;;11.01;100.00;99367.94;8381181;28;20075;-63
2021/12/01 00:57:55;;;;;;;0.95;0.40;;;;;;;11.02;100.00;99362.34;8381907;28;20086;-63
2021/12/01 01:01:56;;;;;;;1.67;0.30;;;;;;;10.97;100.00;99340.38;8383625;28;20037;-63
2021/12/01 01:05:58;;;;;;;0.30;0.30;;;;;;;11.01;100.00;99330.91;8383382;28;20033;-63
2021/12/01 01:10:04;;;;;;;0.40;0.10;;;;;;;11.00;100.00;99329.22;8382137;28;20044;-63
2021/12/01 01:18:28;;;;;;;0.32;0.22;;;;;;;10.88;100.00;99308.97;8381353;28;20095;-63
2021/12/01 01:22:28;;;;;;;0.47;0.40;;;;;;;10.84;100.00;99298.66;8367258;28;20045;-63
2021/12/01 01:26:30;;;;;;;0.43;0.40;;;;;;;10.90;100.00;99296.13;8339145;28;20045;-63
2021/12/01 01:30:31;;;;;;;0.38;0.28;;;;;;;10.85;100.00;99303.91;8376788;28;20125;-63
2021/12/01 01:34:32;;;;;;;0.38;0.38;;;;;;;10.82;100.00;99285.31;8355000;28;20092;-64
2021/12/01 01:38:33;;;;;;;0.93;0.50;;;;;;;10.84;100.00;99286.00;8379465;28;20048;-64
2021/12/01 01:42:33;;;;;;;0.77;0.50;;;;;;;10.84;99.74;99295.97;8388447;28;20063;-64
2021/12/01 01:46:36;;;;;;;1.38;0.60;;;;;;;10.83;99.66;99299.69;8385899;28;20041;-64
2021/12/01 01:50:40;;;;;;;0.60;0.50;;;;;;;10.81;99.71;99297.16;8388457;28;20029;-64
2021/12/01 01:54:40;;;;;;;1.67;0.70;;;;;;;10.82;99.43;99293.44;8387310;28;20040;-64
2021/12/01 01:58:41;;;;;;;2.65;0.80;;;;;;;10.80;99.23;99284.63;8387041;28;20033;-64
2021/12/01 02:02:43;;;;;;;1.42;0.88;;;;;;;10.72;99.58;99276.56;8388764;28;20082;-64
2021/12/01 02:06:47;;;;;;;2.28;1.48;;;;;;;10.71;99.08;99263.22;8387876;28;20035;-64
2021/12/01 02:10:49;;;;;;;2.97;1.08;;;;;;;10.73;98.32;99251.22;8386680;28;20052;-64
2021/12/01 02:14:49;;;;;;;1.42;0.90;;;;;;;10.70;99.17;99246.16;8365256;28;20037;-64
2021/12/01 02:18:50;;;;;;;1.40;0.93;;;;;;;10.67;99.04;99242.97;8371036;28;20056;-64
2021/12/01 02:22:50;;;;;;;1.30;1.13;;;;;;;10.61;99.24;99214.75;8387022;28;20408;-64
2021/12/01 02:26:51;;;;;;;1.63;1.25;;;;;;;10.54;99.44;99197.56;8368243;28;20036;-63
2021/12/01 02:30:52;;;;;;;1.70;1.02;;;;;;;10.58;97.85;99177.28;8385225;28;20409;-63
2021/12/01 02:34:52;;;;;;;1.85;1.23;;;;;;;10.64;96.99;99171.16;8385471;28;20041;-63
2021/12/01 02:38:53;;;;;;;2.25;1.30;;;;;;;10.59;97.28;99164.59;8387309;28;20408;-63
2021/12/01 02:42:53;;;;;;;1.42;1.00;;;;;;;10.52;98.02;99167.16;8386161;28;20048;-63
2021/12/01 02:46:55;;;;;;;1.55;1.23;;;;;;;10.53;97.76;99168.84;8387469;28;20045;-63
2021/12/01 02:50:56;;;;;;;1.30;1.20;;;;;;;10.44;98.18;99152.81;8385549;28;20059;-63
2021/12/01 02:54:56;;;;;;;1.48;1.20;;;;;;;10.42;98.06;99139.50;8385236;28;20052;-63
2021/12/01 02:59:00;;;;;;;1.42;1.10;;;;;;;10.38;97.81;99124.66;8384452;28;20045;-64
2021/12/01 03:03:01;;;;;;;1.88;1.30;;;;;;;10.34;97.79;99120.59;8363447;28;20059;-64
2021/12/01 03:07:03;;;;;;;1.92;1.30;;;;;;;10.30;98.34;99108.47;8351363;28;20392;-64
2021/12/01 03:11:04;;;;;;;1.90;1.27;;;;;;;10.28;98.25;99110.47;8350738;28;20396;-64
2021/12/01 03:15:07;;;;;;;2.17;1.40;;;;;;;10.26;97.83;99104.44;8349683;28;20041;-64
2021/12/01 03:19:08;;;;;;;1.90;1.70;;;;;;;10.23;97.55;99102.06;8345404;28;20401;-64
2021/12/01 03:23:10;;;;;;;2.15;1.92;;;;;;;10.20;97.84;99091.63;8361119;28;20041;-64
2021/12/01 03:27:10;;;;;;;2.83;2.25;;;;;;;10.30;96.56;99084.16;8374170;28;20040;-64
2021/12/01 03:31:11;;;;;;;4.35;2.30;;;;;;;10.25;96.99;99094.66;8384738;28;20067;-63
2021/12/01 03:35:14;;;;;;;2.80;1.95;;;;;;;10.28;96.71;99075.38;8383808;28;20064;-63
2021/12/01 03:39:15;;;;;;;2.00;1.80;;;;;;;10.28;96.51;99078.06;8381750;28;20045;-63
2021/12/01 03:43:16;;;;;;;3.55;2.67;;;;;;;10.28;96.76;99094.28;8381843;28;20037;-63
2021/12/01 03:47:16;;;;;;;3.15;2.28;;;;;;;10.27;96.62;99084.50;8382737;28;20055;-63
2021/12/01 03:51:17;;;;;;;2.75;2.25;;;;;;;10.26;96.53;99082.81;8380429;28;20047;-63
2021/12/01 03:55:17;;;;;;;3.67;2.50;;;;;;;10.30;96.61;99076.06;8374086;28;20041;-63
2021/12/01 03:59:18;;;;;;;3.15;2.80;;;;;;;10.28;96.58;99067.28;8363978;28;20053;-63
2021/12/01 04:03:18;;;;;;;6.18;3.17;;;;;;;10.31;96.76;99056.13;8378545;28;20522;-63
2021/12/01 04:07:19;;;;;;;4.38;2.95;;;;;;;10.30;96.92;99027.44;8386224;28;20039;-63
2021/12/01 04:11:21;;;;;;;5.13;2.97;;;;;;;10.26;96.58;99009.91;8385254;28;20039;-63
2021/12/01 04:15:22;;;;;;;5.85;3.30;;;;;;;10.24;97.17;99005.72;8384361;28;20041;-63
2021/12/01 04:19:22;;;;;;;5.38;3.28;;;;;;;10.23;96.49;99004.84;8383913;28;20512;-63
2021/12/01 04:23:22;;;;;;;3.30;2.78;;;;;;;10.21;96.17;98979.88;8384122;28;20538;-63
2021/12/01 04:27:23;;;;;;;5.18;3.53;;;;;;;10.17;97.02;98956.94;8385530;28;20174;-63
2021/12/01 04:31:25;;;;;;;5.75;3.10;;;;;;;10.08;97.60;98941.81;8384254;28;20036;-64
2021/12/01 04:35:27;;;;;;;3.20;2.35;;;;;;;10.00;97.63;98928.28;8386340;28;20403;-63
2021/12/01 04:39:28;;;;;;;4.63;2.55;;;;;;;9.90;98.42;98906.09;8385245;28;20064;-63
2021/12/01 04:43:29;;;;;;;4.30;2.30;;;;;;;9.93;97.71;98890.38;8372046;28;20041;-63
2021/12/01 04:47:32;;;;;;;5.05;2.40;;;;;;;9.92;98.14;98888.69;8375003;28;20151;-63
2021/12/01 04:51:32;;;;;;;5.38;2.05;;;;;;;9.91;97.74;98875.38;8351560;28;20091;-63
2021/12/01 04:55:34;;;;;;;2.90;2.10;;;;;;;9.87;98.00;98874.03;8351726;28;20128;-63
2021/12/01 04:59:35;;;;;;;3.80;1.58;;;;;;;9.90;96.87;98862.91;8351542;28;20476;-63
2021/12/01 05:03:35;;;;;;;5.57;1.70;;;;;;;9.97;95.64;98842.25;8378411;28;20117;-63
2021/12/01 05:07:36;;;;;;;1.98;1.25;;;;;;;10.03;94.52;98847.81;8396077;28;20036;-63
2021/12/01 05:11:36;;;;;;;2.28;1.30;;;;;;;10.04;94.68;98851.34;8384977;28;20063;-63
2021/12/01 05:15:37;;;;;;;2.13;1.05;;;;;;;10.09;94.13;98840.06;8371818;28;20459;-63
2021/12/01 05:19:38;;;;;;;1.42;0.98;;;;;;;10.12;93.34;98821.63;8356187;28;20064;-63
2021/12/01 05:23:38;;;;;;;2.08;1.27;;;;;;;10.14;93.55;98821.44;8352044;28;20060;-64
2021/12/01 05:27:38;;;;;;;2.22;0.90;;;;;;;10.16;93.05;98800.50;8380046;28;20437;-63
2021/12/01 05:31:39;;;;;;;3.67;1.20;;;;;;;10.11;94.48;98797.50;8367805;28;20581;-63
2021/12/01 05:35:39;;;;;;;1.58;1.30;;;;;;;10.02;95.30;98785.91;8369507;28;20040;-63
2021/12/01 05:39:44;;;;;;;3.25;1.70;;;;;;;9.98;96.79;98747.63;8372721;28;20488;-63
2021/12/01 05:43:46;;;;;;;2.72;1.45;;;;;;;9.90;98.43;98736.91;8355214;28;20122;-63
2021/12/01 05:47:47;;;;;;;2.95;1.65;;;;;;;9.84;99.59;98720.56;8359556;28;20183;-63
2021/12/01 05:51:47;;;;;;;1.90;1.33;;;;;;;9.84;100.00;98704.38;8365280;28;20025;-63
2021/12/01 05:55:48;;;;;;;3.42;2.20;;;;;;;9.76;100.00;98680.19;8365152;28;20051;-63
2021/12/01 05:59:49;;;;;;;2.97;1.60;;;;;;;9.83;99.16;98652.25;8399642;28;20040;-63
2021/12/01 06:03:50;;;;;;;4.40;2.40;;;;;;;9.88;98.36;98654.41;8362835;28;20033;-63
2021/12/01 06:07:50;;;;;;;2.78;2.20;;;;;;;9.89;98.51;98650.72;8368799;28;20449;-63
2021/12/01 06:11:52;;;;;;;1.30;0.95;;;;;;;10.01;96.39;98650.06;8358066;28;20095;-63
2021/12/01 06:15:53;;;;;;;2.05;1.30;;;;;;;10.05;95.68;98642.47;8377082;28;20036;-63
2021/12/01 06:19:53;;;;;;;4.50;2.30;;;;;;;9.99;95.92;98629.69;8361598;28;20072;-63
2021/12/01 06:23:53;;;;;;;2.50;1.00;;;;;;;9.95;96.25;98637.31;8364109;28;20084;-63
2021/12/01 06:27:55;;;;;;;3.15;1.25;;;;;;;10.01;95.19;98622.25;8383847;28;20029;-63
2021/12/01 06:31:55;;;;;;;4.50;1.00;;;;;;;10.04;95.21;98616.50;8345713;28;20114;-63
2021/12/01 06:35:56;;;;;;;1.30;0.82;;;;;;;10.08;94.79;98604.34;8332079;28;20079;-63
2021/12/01 06:39:56;;;;;;;3.80;1.25;;;;;;;10.14;94.33;98584.69;8337225;28;20037;-63
2021/12/01 06:43:57;;;;;;;1.67;0.70;;;;;;;10.12;94.18;98588.63;8340919;28;20456;-63
2021/12/01 06:47:58;;;;;;;2.05;0.50;;;;;;;10.17;94.06;98589.72;8340395;28;20041;-63
2021/12/01 06:51:58;;;;;;;0.70;0.50;;;;;;;10.24;93.25;98579.03;8337715;28;20544;-63
2021/12/01 06:55:58;;;;;;;0.88;0.50;;;;;;;10.24;93.49;98569.06;8336918;28;20041;-63
2021/12/01 06:59:59;;;;;;;1.05;0.30;;;;;;;10.28;92.85;98547.94;8336773;28;20091;-63
2021/12/01 07:04:00;;;;;;;1.35;0.50;;;;;;;10.32;92.55;98544.66;8382158;28;20055;-63
2021/12/01 07:08:00;;;;;;;0.60;0.30;;;;;;;10.31;92.27;98552.97;8386219;28;20032;-63
2021/12/01 07:12:01;;;;;;;1.02;0.20;;;;;;;10.28;92.90;98535.25;8385310;28;20041;-63
2021/12/01 07:16:02;;;;;;;0.22;0.20;;;;;;;10.35;92.57;98544.28;8386462;28;20028;-63
2021/12/01 07:20:04;;;;;;;0.25;0.25;;;;;;;10.34;92.56;98530.97;8384488;28;20041;-63
2021/12/01 07:24:06;;;;;;;0.10;0.10;;;;;;;10.32;92.67;98517.66;8383807;28;20033;-63
2021/12/01 07:28:06;;;;;;;5.00;0.47;;;;;;;10.33;92.52;98513.94;8384336;28;20036;-63
2021/12/01 07:32:08;;;;;;;0.73;0.30;;;;;;;10.37;92.62;98515.22;8365833;28;20060;-63
2021/12/01 07:36:08;;;;;;;0.30;0.20;;;;;;;10.37;92.97;98504.41;8364185;28;20048;-63
2021/12/01 07:40:09;;;;;;;1.13;0.20;;;;;;;10.33;93.42;98486.91;8381619;28;20037;-63
2021/12/01 07:44:09;;;;;;;0.43;0.10;;;;;;;10.31;93.38;98483.56;8390430;28;20087;-63
2021/12/01 07:48:11;;;;;;;0.57;0.30;;;;;;;10.32;92.94;98477.16;8383623;28;20087;-63
2021/12/01 07:52:11;;;;;;;0.35;0.20;;;;;;;10.36;92.82;98464.09;8382911;28;20040;-63
2021/12/01 07:56:12;;;;;;;0.45;0.20;;;;;;;10.38;92.03;98457.50;8383406;28;20029;-63
2021/12/01 08:00:14;;;;;;;0.45;0.20;;;;;;;10.39;91.86;98447.50;8379865;28;20036;-63
2021/12/01 08:04:15;;;;;;;0.40;0.20;;;;;;;10.43;91.80;98457.75;8381721;28;20029;-63
2021/12/01 08:08:15;;;;;;;1.38;0.20;;;;;;;10.56;91.09;98455.22;8381485;28;20043;-63
2021/12/01 08:12:16;;;;;;;0.35;0.10;;;;;;;10.66;90.93;98455.72;8379804;28;20044;-63
2021/12/01 08:16:16;;;;;;;0.10;0.10;;;;;;;10.75;90.42;98453.75;8380263;28;20037;-63
2021/12/01 08:20:17;;;;;;;0.28;0.10;;;;;;;10.78;90.65;98442.53;8380638;28;20041;-63
2021/12/01 08:24:18;;;;;;;3.50;0.20;;;;;;;10.78;90.77;98438.00;8380813;28;20044;-63
2021/12/01 08:28:19;;;;;;;1.20;0.10;;;;;;;10.88;89.87;98443.91;8380358;28;20399;-63
2021/12/01 08:32:19;;;;;;;0.10;0.10;;;;;;;10.83;89.37;98413.09;8380697;28;20026;-63
2021/12/01 08:36:19;;;;;;;0.35;0.20;;;;;;;11.06;89.42;98430.78;8383782;28;20039;-63
2021/12/01 08:40:20;;;;;;;0.20;0.10;;;;;;;10.97;90.60;98437.34;8388041;28;20060;-63
2021/12/01 08:44:20;;;;;;;0.10;0.10;;;;;;;10.90;91.59;98436.44;8387740;28;20055;-63
2021/12/01 08:48:21;;;;;;;1.10;0.20;;;;;;;10.90;92.46;98441.84;8388530;28;20166;-63
2021/12/01 08:52:23;;;;;;;0.75;0.10;;;;;;;10.88;92.60;98427.69;8387135;28;20033;-63
2021/12/01 08:56:24;;;;;;;0.63;0.20;;;;;;;10.91;92.64;98427.28;8386336;28;20068;-63
2021/12/01 09:00:24;;;;;;;0.32;0.32;;;;;;;10.98;92.07;98430.88;8385911;28;20497;-63
2021/12/01 09:04:24;;;;;;;0.13;0.13;;;;;;;11.00;92.16;98409.91;8379086;28;20036;-63
2021/12/01 09:08:25;;;;;;;1.20;0.52;;;;;;;11.07;91.43;98410.81;8386448;28;20368;-63
2021/12/01 09:12:25;;;;;;;0.08;0.08;;;;;;;11.02;92.62;98405.16;8387682;28;20345;-63
2021/12/01 09:16:27;;;;;;;0.40;0.20;;;;;;;11.00;94.09;98399.09;8387507;28;20041;-63
2021/12/01 09:20:29;;;;;;;0.17;0.08;;;;;;;10.95;94.57;98390.72;8387189;28;20040;-63
2021/12/01 09:24:30;;;;;;;0.35;0.10;;;;;;;10.92;95.02;98369.50;8386012;28;20134;-63
2021/12/01 09:28:30;;;;;;;2.38;0.10;;;;;;;10.92;95.81;98365.97;8387695;28;20029;-63
2021/12/01 09:32:34;;;;;;;0.20;0.20;;;;;;;10.95;96.80;98363.69;8368373;28;20395;-63
2021/12/01 09:36:35;;;;;;;0.10;0.10;;;;;;;11.01;96.79;98356.69;8354515;28;20231;-63
2021/12/01 09:40:35;;;;;;;0.10;0.05;;;;;;;11.01;98.01;98362.91;8352686;28;20048;-63
2021/12/01 09:44:37;;;;;;;0.15;0.00;;;;;;;11.11;96.38;98363.44;8354974;28;20093;-63
2021/12/01 09:48:40;;;;;;;1.45;0.10;;;;;;;11.15;96.57;98347.63;8356696;28;20514;-63
2021/12/01 09:52:41;;;;;;;0.55;0.20;;;;;;;11.28;96.59;98345.84;8389456;28;20032;-63
2021/12/01 09:56:41;;;;;;;1.08;0.20;;;;;;;11.45;94.98;98338.25;8371995;28;20032;-63
2021/12/01 10:00:45;;;;;;;1.20;0.10;;;;;;;11.70;93.56;98321.38;8389522;28;20033;-63
2021/12/01 10:04:46;;;;;;;1.83;0.20;;;;;;;11.87;92.84;98311.84;8390221;28;20043;-63
2021/12/01 10:08:57;;;;;;;0.10;0.10;;;;;;;11.77;93.02;98300.56;8390013;28;20025;-63
2021/12/01 10:12:57;;;;;;;0.55;0.10;;;;;;;12.14;91.60;98311.94;8389290;28;20082;-63
2021/12/01 10:16:58;;;;;;;0.40;0.20;;;;;;;12.26;90.30;98304.91;8388496;28;20500;-63
2021/12/01 10:21:04;;;;;;;0.60;0.20;;;;;;;12.24;90.13;98310.53;8388261;28;20045;-63
2021/12/01 10:25:28;;;;;;;0.10;0.08;;;;;;;12.06;90.75;98295.88;8388714;28;20037;-63
2021/12/01 10:29:32;;;;;;;0.45;0.20;;;;;;;12.01;91.48;98292.97;8389865;28;20059;-63
2021/12/01 10:33:32;;;;;;;0.10;0.10;;;;;;;12.03;92.02;98288.16;8387943;28;20101;-63
2021/12/01 10:37:34;;;;;;;0.00;0.00;;;;;;;12.12;90.92;98292.34;8386927;28;20033;-63
2021/12/01 10:41:37;;;;;;;0.13;0.00;;;;;;;12.27;89.53;98260.50;8386266;28;20535;-63
2021/12/01 10:45:46;;;;;;;0.43;0.00;;;;;;;12.47;88.45;98253.25;8387997;28;20112;-63
2021/12/01 10:49:47;;;;;;;0.25;0.10;;;;;;;12.46;88.71;98256.97;8388262;28;20036;-63
2021/12/01 10:53:55;;;;;;;0.35;0.00;;;;;;;12.29;90.38;98250.31;8385731;28;20128;-63
2021/12/01 10:58:01;;;;;;;0.43;0.20;;;;;;;12.41;90.81;98252.19;8386328;28;20044;-63
2021/12/01 11:02:11;;;;;;;0.13;0.10;;;;;;;12.33;91.72;98243.41;8382890;28;20037;-63
2021/12/01 11:06:14;;;;;;;0.00;0.00;;;;;;;12.38;93.22;98238.22;8381563;28;20432;-63
2021/12/01 11:10:20;;;;;;;0.10;0.00;;;;;;;12.25;92.98;98232.78;8384817;28;20055;-63
2021/12/01 11:14:22;;;;;;;0.10;0.10;;;;;;;12.08;94.82;98242.34;8384025;28;20028;-63
2021/12/01 11:18:26;;;;;;;0.20;0.10;;;;;;;11.86;98.23;98239.81;8383946;28;20371;-63
2021/12/01 11:22:28;;;;;;;0.32;0.00;;;;;;;11.78;100.00;98231.84;8384055;28;20059;-63
2021/12/01 11:26:30;;;;;;;0.10;0.10;;;;;;;11.77;100.00;98234.75;8385098;28;20056;-63
2021/12/01 11:30:31;;;;;;;0.10;0.10;;;;;;;11.78;100.00;98218.31;8371803;28;20104;-63
2021/12/01 11:34:31;;;;;;;0.47;0.20;;;;;;;11.75;100.00;98221.44;8363032;28;20051;-63
2021/12/01 11:38:33;;;;;;;0.98;0.10;;;;;;;11.70;100.00;98225.78;8369896;28;20036;-63
2021/12/01 11:42:34;;;;;;;0.28;0.10;;;;;;;11.52;100.00;98223.63;8381005;28;20032;-63
2021/12/01 11:46:35;;;;;;;0.17;0.10;;;;;;;11.44;100.00;98218.38;8368589;28;20116;-63
2021/12/01 11:50:43;;;;;;;0.63;0.30;;;;;;;11.38;100.00;98219.19;8351028;28;20040;-63
2021/12/01 11:54:45;;;;;;;0.00;0.00;;;;;;;11.37;100.00;98217.53;8351447;28;20051;-63
2021/12/01 12:03:25;;;;;;;0.30;0.10;;;;;;;11.17;100.00;98203.09;8490608;27;20339;-63
2021/12/01 12:11:45;;;;;;;2.25;0.80;;;;;;;10.74;100.00;98242.13;8394879;28;20504;-63
2021/12/01 12:15:50;;;;;;;2.83;0.85;;;;;;;10.57;100.00;98238.06;8378990;28;20512;-63
2021/12/01 12:19:56;;;;;;;2.47;1.10;;;;;;;10.44;100.00;98243.34;8364024;28;20533;-63
2021/12/01 12:24:07;;;;;;;3.25;1.60;;;;;;;10.50;100.00;98239.88;8363575;28;20234;-63
2021/12/01 12:32:36;;;;;;;7.07;2.20;;;;;;;10.60;100.00;98221.44;8359340;27;20414;-63
2021/12/01 12:36:41;;;;;;;5.53;2.20;;;;;;;10.66;100.00;98231.47;8333196;28;20037;-64
2021/12/01 12:40:43;;;;;;;5.25;2.50;;;;;;;10.76;100.00;98233.81;8326060;28;20041;-63
2021/12/01 12:44:48;;;;;;;5.55;2.13;;;;;;;10.78;100.00;98229.06;8330590;28;20031;-64
2021/12/01 12:48:52;;;;;;;6.25;2.25;;;;;;;10.79;100.00;98228.84;8330503;28;20044;-63
2021/12/01 12:53:04;;;;;;;5.53;2.53;;;;;;;10.87;100.00;98223.31;8313737;28;20038;-63
2021/12/01 12:57:07;;;;;;;6.55;1.98;;;;;;;10.90;100.00;98241.84;8297731;28;20400;-63
2021/12/01 13:01:23;;;;;;;2.97;1.58;;;;;;;10.87;99.06;98242.22;8301845;28;20098;-63
2021/12/01 13:05:35;;;;;;;6.03;2.25;;;;;;;10.77;98.67;98236.31;8342664;28;20163;-64
2021/12/01 13:09:35;;;;;;;4.15;1.85;;;;;;;10.75;96.52;98238.41;8327831;28;20120;-64
2021/12/01 13:13:40;;;;;;;5.55;2.72;;;;;;;10.58;99.40;98247.81;8330028;28;20042;-64
2021/12/01 13:17:46;;;;;;;4.53;2.20;;;;;;;10.40;100.00;98254.75;8327173;28;20265;-64
2021/12/01 13:21:48;;;;;;;5.05;2.15;;;;;;;10.26;98.87;98258.34;8328643;28;20033;-63
2021/12/01 13:26:08;;;;;;;4.45;2.08;;;;;;;10.14;99.76;98268.84;8330207;28;20054;-63
2021/12/01 13:30:10;;;;;;;5.40;1.20;;;;;;;10.08;98.44;98258.81;8330677;28;20044;-63
2021/12/01 13:34:14;;;;;;;4.93;1.25;;;;;;;10.09;96.78;98268.56;8323970;28;20042;-63
2021/12/01 13:38:15;;;;;;;8.45;1.35;;;;;;;10.18;94.62;98278.22;8331189;28;20589;-63
2021/12/01 13:42:21;;;;;;;4.43;1.20;;;;;;;10.30;93.04;98282.06;8319641;28;20176;-63
2021/12/01 13:46:21;;;;;;;8.20;1.38;;;;;;;10.38;92.06;98279.25;8310162;28;20403;-63
2021/12/01 13:50:22;;;;;;;5.05;1.10;;;;;;;10.43;91.85;98287.59;8309615;28;20042;-63
2021/12/01 13:54:24;;;;;;;3.72;0.80;;;;;;;10.33;93.22;98297.88;8309900;28;20045;-63
2021/12/01 13:58:24;;;;;;;4.18;1.08;;;;;;;10.30;93.04;98300.97;8308066;28;20037;-63
2021/12/01 14:02:27;;;;;;;4.57;1.17;;;;;;;10.27;92.92;98298.66;8308223;28;20049;-63
2021/12/01 14:06:31;;;;;;;3.28;0.90;;;;;;;10.24;92.86;98307.13;8306449;28;20045;-63
2021/12/01 14:10:37;;;;;;;3.35;0.77;;;;;;;10.22;93.37;98319.16;8303022;28;20045;-63
2021/12/01 14:14:38;;;;;;;2.83;1.00;;;;;;;10.19;92.99;98317.69;8304888;28;20041;-63
2021/12/01 14:18:38;;;;;;;7.72;1.02;;;;;;;10.18;92.80;98315.19;8305342;28;20042;-63
2021/12/01 14:22:39;;;;;;;6.65;2.40;;;;;;;10.22;92.26;98311.06;8305200;28;20106;-63
2021/12/01 14:26:47;;;;;;;12.07;3.42;;;;;;;10.22;93.26;98313.78;8305755;28;20052;-63
2021/12/01 14:30:49;;;;;;;6.72;1.65;;;;;;;10.21;92.85;98326.41;8305436;28;20042;-63
2021/12/01 14:34:51;;;;;;;4.60;0.77;;;;;;;10.19;93.10;98328.50;8305031;28;20128;-63
2021/12/01 14:38:52;;;;;;;5.65;1.27;;;;;;;10.22;92.60;98328.13;8304783;28;20053;-63
2021/12/01 14:42:55;;;;;;;3.75;1.17;;;;;;;10.23;93.03;98328.94;8304713;28;20531;-63
2021/12/01 14:46:58;;;;;;;6.38;1.80;;;;;;;10.21;93.00;98326.41;8307021;28;20294;-63
2021/12/01 14:50:59;;;;;;;4.03;1.13;;;;;;;10.06;93.00;98328.28;8305653;28;20037;-63
2021/12/01 14:55:03;;;;;;;4.07;1.60;;;;;;;9.98;92.96;98325.72;8303933;28;20037;-63
2021/12/01 14:59:04;;;;;;;7.32;1.98;;;;;;;9.87;93.68;98334.31;8304455;28;20085;-63
2021/12/01 15:03:20;;;;;;;6.07;1.90;;;;;;;9.80;94.24;98330.72;8304807;28;20377;-63
2021/12/01 15:07:20;;;;;;;5.05;1.48;;;;;;;9.74;94.97;98328.75;8305414;28;20040;-63
2021/12/01 15:11:25;;;;;;;5.82;1.40;;;;;;;9.76;95.09;98334.81;8307239;28;20037;-63
2021/12/01 15:15:27;;;;;;;;;;;;;;;9.75;94.65;98336.66;8305918;28;20511;-63
2021/12/01 15:19:28;;;;;;;5.13;2.17;;;;;;;9.72;95.10;98341.59;8295220;28;19917;-63
2021/12/01 15:23:42;;;;;;;5.22;1.77;;;;;;;9.67;95.59;98333.25;8287566;28;20060;-63
2021/12/01 15:27:42;;;;;;;7.93;1.13;;;;;;;9.64;96.45;98341.72;8295068;28;20125;-63
2021/12/01 15:31:52;;;;;;;2.60;0.80;;;;;;;9.61;96.49;98342.09;8284910;28;20038;-63
2021/12/01 15:35:52;;;;;;;4.78;0.98;;;;;;;9.55;96.46;98346.34;8302493;28;20057;-63
2021/12/01 15:39:53;;;;;;;4.05;1.25;;;;;;;9.61;96.77;98348.31;8303419;28;20136;-63
2021/12/01 15:43:53;;;;;;;5.43;1.05;;;;;;;9.61;96.50;98345.59;8295406;28;20109;-63
2021/12/01 15:47:54;;;;;;;4.75;1.10;;;;;;;9.63;96.64;98348.13;8302080;28;20046;-63
2021/12/01 15:51:56;;;;;;;2.83;1.10;;;;;;;9.67;96.71;98357.53;8301101;28;20042;-63
2021/12/01 15:56:00;;;;;;;4.43;1.35;;;;;;;9.69;96.78;98356.31;8301384;28;20104;-63
2021/12/01 16:00:04;;;;;;;4.13;1.10;;;;;;;9.67;98.41;98377.22;8301142;28;20034;-63
2021/12/01 16:04:04;;;;;;;4.82;1.02;;;;;;;9.49;100.00;98373.25;8299975;28;20049;-62
2021/12/01 16:08:05;;;;;;;5.45;2.83;;;;;;;9.32;100.00;98366.34;8292967;28;20053;-63
2021/12/01 16:12:06;;;;;;;5.47;1.38;;;;;;;9.26;100.00;98373.31;8301145;28;20385;-63
2021/12/01 16:16:07;;;;;;;2.53;1.27;;;;;;;9.30;100.00;98374.63;8291171;28;20046;-63
2021/12/01 16:20:12;;;;;;;6.35;1.88;;;;;;;9.32;100.00;98377.13;8284467;28;20493;-63
2021/12/01 16:24:13;;;;;;;5.22;1.80;;;;;;;9.32;100.00;98385.22;8285875;28;20413;-63
2021/12/01 16:28:13;;;;;;;4.82;1.75;;;;;;;9.35;100.00;98395.63;8296809;28;20034;-63
2021/12/01 16:32:14;;;;;;;6.38;1.50;;;;;;;9.36;100.00;98400.00;8298561;28;20042;-63
2021/12/01 16:36:16;;;;;;;3.83;1.55;;;;;;;9.34;100.00;98412.84;8292251;28;20335;-63
2021/12/01 16:40:18;;;;;;;7.00;2.45;;;;;;;9.35;100.00;98406.41;8287576;28;20046;-62
2021/12/01 16:44:20;;;;;;;8.07;2.35;;;;;;;9.39;100.00;98415.81;8276287;28;20069;-64
2021/12/01 16:48:21;;;;;;;6.70;2.55;;;;;;;9.33;100.00;98412.00;8285481;28;20034;-63
2021/12/01 16:52:23;;;;;;;6.75;3.15;;;;;;;9.28;100.00;98422.53;8297163;28;20366;-63
2021/12/01 16:56:24;;;;;;;11.82;2.90;;;;;;;9.28;100.00;98424.38;8302435;28;20062;-63
2021/12/01 17:00:30;;;;;;;8.43;3.42;;;;;;;9.31;100.00;98418.59;8300586;28;20087;-63
2021/12/01 17:04:35;;;;;;;5.95;2.63;;;;;;;9.32;100.00;98436.44;8302489;28;20041;-63
2021/12/01 17:08:42;;;;;;;12.30;3.70;;;;;;;9.39;100.00;98451.72;8305671;28;20029;-63
2021/12/01 17:12:43;;;;;;;12.38;3.80;;;;;;;9.47;99.79;98456.19;8262519;28;20042;-63
2021/12/01 17:16:48;;;;;;;13.18;4.50;;;;;;;9.48;100.00;98447.91;8286241;28;20033;-63
2021/12/01 17:20:49;;;;;;;;;;;;;;;9.37;100.00;98456.44;8299268;28;20042;-63
2021/12/01 17:24:50;;;;;;;9.35;4.03;;;;;;;9.32;100.00;98475.03;8284296;28;20347;-63
2021/12/01 17:28:51;;;;;;;12.43;4.10;;;;;;;9.28;100.00;98467.50;8297348;28;20054;-63
2021/12/01 17:32:56;;;;;;;5.47;3.08;;;;;;;9.30;100.00;98470.88;8305690;28;20259;-63
2021/12/01 17:36:57;;;;;;;11.20;3.40;;;;;;;9.24;100.00;98468.91;8298029;28;20084;-63
2021/12/01 17:40:58;;;;;;;8.32;3.42;;;;;;;9.12;100.00;98473.03;8307509;28;20038;-63
2021/12/01 17:44:59;;;;;;;9.30;3.85;;;;;;;9.07;100.00;98484.38;8307620;28;21459;-63
2021/12/01 17:49:00;;;;;;;12.77;4.10;;;;;;;9.11;100.00;98471.34;8308325;28;20038;-63
2021/12/01 17:53:00;;;;;;;11.70;3.90;;;;;;;9.17;100.00;98497.56;8309358;28;20520;-63
2021/12/01 17:57:03;;;;;;;9.00;3.97;;;;;;;9.13;100.00;98496.28;8309344;28;20030;-64
2021/12/01 18:01:06;;;;;;;13.07;4.55;;;;;;;9.08;100.00;98498.66;8307523;28;20045;-63
2021/12/01 18:05:07;;;;;;;11.02;3.60;;;;;;;9.05;100.00;98509.78;8296642;28;20424;-63
2021/12/01 18:09:08;;;;;;;6.38;3.90;;;;;;;9.04;100.00;98508.13;8307421;28;20037;-64
2021/12/01 18:13:10;;;;;;;13.50;4.22;;;;;;;9.11;100.00;98507.22;8305758;28;20485;-63
2021/12/01 18:17:11;;;;;;;18.75;4.88;;;;;;;9.18;100.00;98500.09;8304578;28;20667;-63
2021/12/01 18:21:12;;;;;;;15.55;5.20;;;;;;;9.20;100.00;98524.16;8300384;28;20041;-63
2021/12/01 18:25:13;;;;;;;8.70;4.30;;;;;;;9.08;100.00;98525.59;8303614;28;20105;-63
2021/12/01 18:29:14;;;;;;;17.23;4.90;;;;;;;8.93;100.00;98546.25;8305813;28;20037;-63
2021/12/01 18:33:16;;;;;;;3.80;1.00;;;;;;;8.44;100.00;98586.09;8306416;28;20532;-63
2021/12/01 18:37:16;;;;;;;6.32;1.13;;;;;;;7.86;100.00;98591.78;8305833;28;20045;-63
2021/12/01 18:41:18;;;;;;;5.13;0.88;;;;;;;7.58;100.00;98597.69;8298601;28;20054;-63
2021/12/01 18:45:18;;;;;;;3.25;0.82;;;;;;;7.51;100.00;98602.88;8285422;28;20045;-62
2021/12/01 18:49:19;;;;;;;5.60;1.58;;;;;;;7.59;100.00;98602.88;8301372;28;20338;-62
2021/12/01 18:53:19;;;;;;;2.75;0.70;;;;;;;7.58;100.00;98606.59;8313013;28;20041;-62
2021/12/01 18:57:20;;;;;;;3.88;1.20;;;;;;;7.60;100.00;98607.25;8300627;28;20030;-62
2021/12/01 19:01:22;;;;;;;5.50;1.00;;;;;;;7.67;100.00;98612.81;8299494;28;20127;-62
2021/12/01 19:05:24;;;;;;;5.18;0.95;;;;;;;7.73;100.00;98623.72;8302304;28;20117;-63
2021/12/01 19:09:25;;;;;;;4.55;2.30;;;;;;;7.75;100.00;98631.63;8303611;28;20026;-63
2021/12/01 19:13:26;;;;;;;9.90;3.47;;;;;;;7.75;100.00;98627.06;8303390;28;20042;-62
2021/12/01 19:17:26;;;;;;;7.50;3.50;;;;;;;7.77;100.00;98635.81;8304075;28;20037;-62